sensor_id;sensor_type;location;lat;lon;timestamp;P1;durP1;ratioP1;P2;durP2;ratioP2
20042;SDS011;10182;52.896;6.496;2023-04-25T00:01:03;17.83;;;5.50;;
20042;SDS011;10182;52.896;6.496;2023-04-25T00:06:07;21.10;;;5.87;;
20042;SDS011;10182;52.896;6.496;2023-04-25T00:11:08;24.93;;;6.10;;
20042;SDS011;10182;52.896;6.496;2023-04-25T00:16:10;19.73;;;5.73;;
20042;SDS011;10182;52.896;6.496;2023-04-25T00:21:15;16.93;;;6.07;;
20042;SDS011;10182;52.896;6.496;2023-04-25T00:26:18;15.30;;;5.70;;
20042;SDS011;10182;52.896;6.496;2023-04-25T00:31:21;17.13;;;5.77;;
20042;SDS011;10182;52.896;6.496;2023-04-25T00:36:24;21.67;;;6.33;;
20042;SDS011;10182;52.896;6.496;2023-04-25T00:41:26;18.47;;;5.37;;
20042;SDS011;10182;52.896;6.496;2023-04-25T00:46:28;27.03;;;6.10;;
20042;SDS011;10182;52.896;6.496;2023-04-25T00:51:31;18.40;;;6.53;;
20042;SDS011;10182;52.896;6.496;2023-04-25T00:56:34;22.47;;;6.13;;
20042;SDS011;10182;52.896;6.496;2023-04-25T01:01:36;20.27;;;6.17;;
20042;SDS011;10182;52.896;6.496;2023-04-25T01:06:41;20.40;;;5.73;;
20042;SDS011;10182;52.896;6.496;2023-04-25T01:11:42;18.80;;;5.83;;
20042;SDS011;10182;52.896;6.496;2023-04-25T01:16:44;20.73;;;6.33;;
20042;SDS011;10182;52.896;6.496;2023-04-25T01:21:47;20.70;;;6.83;;
20042;SDS011;10182;52.896;6.496;2023-04-25T01:26:49;22.53;;;6.77;;
20042;SDS011;10182;52.896;6.496;2023-04-25T01:31:51;16.40;;;5.70;;
20042;SDS011;10182;52.896;6.496;2023-04-25T01:36:55;20.23;;;5.53;;
20042;SDS011;10182;52.896;6.496;2023-04-25T01:41:58;18.53;;;5.80;;
20042;SDS011;10182;52.896;6.496;2023-04-25T01:47:00;16.70;;;5.63;;
20042;SDS011;10182;52.896;6.496;2023-04-25T01:52:03;17.73;;;6.47;;
20042;SDS011;10182;52.896;6.496;2023-04-25T01:57:05;22.03;;;6.10;;
20042;SDS011;10182;52.896;6.496;2023-04-25T02:02:07;22.60;;;4.77;;
20042;SDS011;10182;52.896;6.496;2023-04-25T02:07:10;12.57;;;4.17;;
20042;SDS011;10182;52.896;6.496;2023-04-25T02:12:11;16.17;;;4.60;;
20042;SDS011;10182;52.896;6.496;2023-04-25T02:17:13;18.23;;;4.90;;
20042;SDS011;10182;52.896;6.496;2023-04-25T02:22:17;20.53;;;4.27;;
20042;SDS011;10182;52.896;6.496;2023-04-25T02:27:19;18.43;;;4.60;;
20042;SDS011;10182;52.896;6.496;2023-04-25T02:32:21;17.83;;;4.07;;
20042;SDS011;10182;52.896;6.496;2023-04-25T02:37:24;15.60;;;4.40;;
20042;SDS011;10182;52.896;6.496;2023-04-25T02:42:25;14.90;;;3.63;;
20042;SDS011;10182;52.896;6.496;2023-04-25T02:47:27;18.80;;;4.13;;
20042;SDS011;10182;52.896;6.496;2023-04-25T02:52:30;14.87;;;3.53;;
20042;SDS011;10182;52.896;6.496;2023-04-25T02:57:32;14.23;;;4.30;;
20042;SDS011;10182;52.896;6.496;2023-04-25T03:02:34;14.67;;;3.63;;
20042;SDS011;10182;52.896;6.496;2023-04-25T03:07:37;10.80;;;3.57;;
20042;SDS011;10182;52.896;6.496;2023-04-25T03:12:39;11.47;;;3.40;;
20042;SDS011;10182;52.896;6.496;2023-04-25T03:17:41;16.40;;;4.30;;
20042;SDS011;10182;52.896;6.496;2023-04-25T03:22:44;12.47;;;3.43;;
20042;SDS011;10182;52.896;6.496;2023-04-25T03:27:45;8.53;;;2.97;;
20042;SDS011;10182;52.896;6.496;2023-04-25T03:32:48;12.67;;;2.60;;
20042;SDS011;10182;52.896;6.496;2023-04-25T03:37:51;6.07;;;2.17;;
20042;SDS011;10182;52.896;6.496;2023-04-25T03:42:53;7.67;;;2.87;;
20042;SDS011;10182;52.896;6.496;2023-04-25T03:47:55;5.87;;;1.90;;
20042;SDS011;10182;52.896;6.496;2023-04-25T03:52:58;5.83;;;2.10;;
20042;SDS011;10182;52.896;6.496;2023-04-25T03:57:59;5.63;;;1.87;;
20042;SDS011;10182;52.896;6.496;2023-04-25T04:03:01;6.80;;;2.10;;
20042;SDS011;10182;52.896;6.496;2023-04-25T04:08:04;9.17;;;2.20;;
20042;SDS011;10182;52.896;6.496;2023-04-25T04:13:06;4.80;;;2.13;;
20042;SDS011;10182;52.896;6.496;2023-04-25T04:18:08;8.17;;;2.07;;
20042;SDS011;10182;52.896;6.496;2023-04-25T04:23:12;6.27;;;1.93;;
20042;SDS011;10182;52.896;6.496;2023-04-25T04:28:13;9.90;;;2.20;;
20042;SDS011;10182;52.896;6.496;2023-04-25T04:33:16;9.73;;;2.30;;
20042;SDS011;10182;52.896;6.496;2023-04-25T04:38:20;10.53;;;2.50;;
20042;SDS011;10182;52.896;6.496;2023-04-25T04:43:22;16.07;;;3.17;;
20042;SDS011;10182;52.896;6.496;2023-04-25T04:48:24;8.17;;;3.20;;
20042;SDS011;10182;52.896;6.496;2023-04-25T04:53:27;9.57;;;2.70;;
20042;SDS011;10182;52.896;6.496;2023-04-25T04:58:29;5.50;;;2.57;;
20042;SDS011;10182;52.896;6.496;2023-04-25T05:03:31;11.00;;;2.30;;
20042;SDS011;10182;52.896;6.496;2023-04-25T05:08:34;6.40;;;2.80;;
20042;SDS011;10182;52.896;6.496;2023-04-25T05:13:35;7.20;;;3.00;;
20042;SDS011;10182;52.896;6.496;2023-04-25T05:18:37;12.10;;;3.33;;
20042;SDS011;10182;52.896;6.496;2023-04-25T05:23:41;6.93;;;2.40;;
20042;SDS011;10182;52.896;6.496;2023-04-25T05:28:42;11.07;;;3.50;;
20042;SDS011;10182;52.896;6.496;2023-04-25T05:33:44;14.43;;;2.90;;
20042;SDS011;10182;52.896;6.496;2023-04-25T05:38:47;11.23;;;2.87;;
20042;SDS011;10182;52.896;6.496;2023-04-25T05:43:49;12.17;;;2.87;;
20042;SDS011;10182;52.896;6.496;2023-04-25T05:48:51;12.43;;;3.27;;
20042;SDS011;10182;52.896;6.496;2023-04-25T05:53:54;9.57;;;3.20;;
20042;SDS011;10182;52.896;6.496;2023-04-25T05:58:56;11.57;;;3.10;;
20042;SDS011;10182;52.896;6.496;2023-04-25T06:03:57;12.60;;;2.80;;
20042;SDS011;10182;52.896;6.496;2023-04-25T06:09:00;12.90;;;3.53;;
20042;SDS011;10182;52.896;6.496;2023-04-25T06:14:02;10.13;;;3.13;;
20042;SDS011;10182;52.896;6.496;2023-04-25T06:19:04;9.10;;;2.70;;
20042;SDS011;10182;52.896;6.496;2023-04-25T06:24:07;11.23;;;2.43;;
20042;SDS011;10182;52.896;6.496;2023-04-25T06:29:09;9.50;;;2.43;;
20042;SDS011;10182;52.896;6.496;2023-04-25T06:34:10;12.00;;;3.27;;
20042;SDS011;10182;52.896;6.496;2023-04-25T06:39:13;9.70;;;2.57;;
20042;SDS011;10182;52.896;6.496;2023-04-25T06:44:15;10.87;;;2.87;;
20042;SDS011;10182;52.896;6.496;2023-04-25T06:49:17;7.33;;;2.20;;
20042;SDS011;10182;52.896;6.496;2023-04-25T06:54:20;13.50;;;2.40;;
20042;SDS011;10182;52.896;6.496;2023-04-25T06:59:21;8.43;;;2.23;;
20042;SDS011;10182;52.896;6.496;2023-04-25T07:04:23;8.43;;;2.60;;
20042;SDS011;10182;52.896;6.496;2023-04-25T07:09:26;6.50;;;2.23;;
20042;SDS011;10182;52.896;6.496;2023-04-25T07:14:28;8.63;;;2.03;;
20042;SDS011;10182;52.896;6.496;2023-04-25T07:19:29;10.60;;;2.50;;
20042;SDS011;10182;52.896;6.496;2023-04-25T07:24:33;10.07;;;2.53;;
20042;SDS011;10182;52.896;6.496;2023-04-25T07:29:35;8.63;;;2.07;;
20042;SDS011;10182;52.896;6.496;2023-04-25T07:34:37;6.30;;;2.07;;
20042;SDS011;10182;52.896;6.496;2023-04-25T07:39:40;10.40;;;2.30;;
20042;SDS011;10182;52.896;6.496;2023-04-25T07:44:42;7.20;;;1.63;;
20042;SDS011;10182;52.896;6.496;2023-04-25T07:49:43;5.43;;;1.60;;
20042;SDS011;10182;52.896;6.496;2023-04-25T07:54:47;4.53;;;1.13;;
20042;SDS011;10182;52.896;6.496;2023-04-25T07:59:48;7.57;;;1.83;;
20042;SDS011;10182;52.896;6.496;2023-04-25T08:04:50;4.97;;;2.03;;
20042;SDS011;10182;52.896;6.496;2023-04-25T08:09:53;7.60;;;1.40;;
20042;SDS011;10182;52.896;6.496;2023-04-25T08:14:55;7.53;;;2.50;;
20042;SDS011;10182;52.896;6.496;2023-04-25T08:19:57;7.93;;;1.90;;
20042;SDS011;10182;52.896;6.496;2023-04-25T08:25:00;9.63;;;2.00;;
20042;SDS011;10182;52.896;6.496;2023-04-25T08:30:01;8.97;;;2.70;;
20042;SDS011;10182;52.896;6.496;2023-04-25T08:35:04;7.23;;;1.93;;
20042;SDS011;10182;52.896;6.496;2023-04-25T08:40:08;7.13;;;1.90;;
20042;SDS011;10182;52.896;6.496;2023-04-25T08:45:13;5.47;;;1.87;;
20042;SDS011;10182;52.896;6.496;2023-04-25T08:50:15;7.30;;;1.97;;
20042;SDS011;10182;52.896;6.496;2023-04-25T08:55:20;5.73;;;1.30;;
20042;SDS011;10182;52.896;6.496;2023-04-25T09:00:23;7.00;;;1.73;;
20042;SDS011;10182;52.896;6.496;2023-04-25T09:05:25;2.97;;;1.63;;
20042;SDS011;10182;52.896;6.496;2023-04-25T09:10:30;4.70;;;1.60;;
20042;SDS011;10182;52.896;6.496;2023-04-25T09:15:32;3.80;;;1.37;;
20042;SDS011;10182;52.896;6.496;2023-04-25T09:20:34;7.10;;;1.70;;
20042;SDS011;10182;52.896;6.496;2023-04-25T09:25:44;3.23;;;1.20;;
20042;SDS011;10182;52.896;6.496;2023-04-25T09:30:48;6.37;;;1.27;;
20042;SDS011;10182;52.896;6.496;2023-04-25T09:35:50;6.70;;;1.43;;
20042;SDS011;10182;52.896;6.496;2023-04-25T09:40:56;6.17;;;2.20;;
20042;SDS011;10182;52.896;6.496;2023-04-25T09:45:58;8.20;;;1.80;;
20042;SDS011;10182;52.896;6.496;2023-04-25T09:51:04;4.47;;;1.47;;
20042;SDS011;10182;52.896;6.496;2023-04-25T09:56:08;5.37;;;1.30;;
20042;SDS011;10182;52.896;6.496;2023-04-25T10:01:11;4.13;;;1.40;;
20042;SDS011;10182;52.896;6.496;2023-04-25T10:06:14;4.33;;;1.63;;
20042;SDS011;10182;52.896;6.496;2023-04-25T10:11:21;6.50;;;2.00;;
20042;SDS011;10182;52.896;6.496;2023-04-25T10:16:25;4.27;;;1.40;;
20042;SDS011;10182;52.896;6.496;2023-04-25T10:21:28;7.57;;;2.03;;
20042;SDS011;10182;52.896;6.496;2023-04-25T10:26:36;4.73;;;2.00;;
20042;SDS011;10182;52.896;6.496;2023-04-25T10:31:44;6.87;;;1.53;;
20042;SDS011;10182;52.896;6.496;2023-04-25T10:36:49;4.37;;;1.63;;
20042;SDS011;10182;52.896;6.496;2023-04-25T10:41:55;5.17;;;1.70;;
20042;SDS011;10182;52.896;6.496;2023-04-25T10:46:58;7.97;;;2.17;;
20042;SDS011;10182;52.896;6.496;2023-04-25T10:52:10;7.27;;;2.40;;
20042;SDS011;10182;52.896;6.496;2023-04-25T10:57:30;6.50;;;2.30;;
20042;SDS011;10182;52.896;6.496;2023-04-25T11:02:36;7.03;;;2.10;;
20042;SDS011;10182;52.896;6.496;2023-04-25T11:07:42;8.07;;;1.73;;
20042;SDS011;10182;52.896;6.496;2023-04-25T11:12:52;7.67;;;2.07;;
20042;SDS011;10182;52.896;6.496;2023-04-25T11:17:54;7.13;;;1.97;;
20042;SDS011;10182;52.896;6.496;2023-04-25T11:22:57;4.53;;;1.30;;
20042;SDS011;10182;52.896;6.496;2023-04-25T11:28:01;6.67;;;1.83;;
20042;SDS011;10182;52.896;6.496;2023-04-25T11:33:03;6.80;;;1.30;;
20042;SDS011;10182;52.896;6.496;2023-04-25T11:38:04;6.43;;;2.03;;
20042;SDS011;10182;52.896;6.496;2023-04-25T11:43:08;3.23;;;1.63;;
20042;SDS011;10182;52.896;6.496;2023-04-25T11:48:10;8.63;;;1.63;;
20042;SDS011;10182;52.896;6.496;2023-04-25T11:53:12;4.27;;;1.50;;
20042;SDS011;10182;52.896;6.496;2023-04-25T11:58:15;7.77;;;1.80;;
20042;SDS011;10182;52.896;6.496;2023-04-25T12:03:17;2.17;;;1.20;;
20042;SDS011;10182;52.896;6.496;2023-04-25T12:08:19;9.03;;;2.10;;
20042;SDS011;10182;52.896;6.496;2023-04-25T12:13:23;6.53;;;1.50;;
20042;SDS011;10182;52.896;6.496;2023-04-25T12:18:25;8.87;;;2.37;;
20042;SDS011;10182;52.896;6.496;2023-04-25T12:23:28;7.57;;;1.97;;
20042;SDS011;10182;52.896;6.496;2023-04-25T12:28:32;6.33;;;2.07;;
20042;SDS011;10182;52.896;6.496;2023-04-25T12:33:34;6.53;;;2.00;;
20042;SDS011;10182;52.896;6.496;2023-04-25T12:38:38;5.13;;;2.10;;
20042;SDS011;10182;52.896;6.496;2023-04-25T12:43:42;6.30;;;1.90;;
20042;SDS011;10182;52.896;6.496;2023-04-25T12:48:43;9.47;;;2.67;;
20042;SDS011;10182;52.896;6.496;2023-04-25T12:53:53;6.37;;;2.03;;
20042;SDS011;10182;52.896;6.496;2023-04-25T12:58:55;4.83;;;1.47;;
20042;SDS011;10182;52.896;6.496;2023-04-25T13:03:57;4.97;;;1.57;;
20042;SDS011;10182;52.896;6.496;2023-04-25T13:09:00;5.60;;;1.83;;
20042;SDS011;10182;52.896;6.496;2023-04-25T13:14:02;4.57;;;1.43;;
20042;SDS011;10182;52.896;6.496;2023-04-25T13:19:03;5.73;;;1.60;;
20042;SDS011;10182;52.896;6.496;2023-04-25T13:24:08;7.63;;;1.80;;
20042;SDS011;10182;52.896;6.496;2023-04-25T13:29:10;5.50;;;1.63;;
20042;SDS011;10182;52.896;6.496;2023-04-25T13:34:12;9.77;;;2.20;;
20042;SDS011;10182;52.896;6.496;2023-04-25T13:39:15;4.87;;;1.57;;
20042;SDS011;10182;52.896;6.496;2023-04-25T13:44:16;7.80;;;1.70;;
20042;SDS011;10182;52.896;6.496;2023-04-25T13:49:18;4.87;;;1.50;;
20042;SDS011;10182;52.896;6.496;2023-04-25T13:54:21;7.17;;;1.50;;
20042;SDS011;10182;52.896;6.496;2023-04-25T13:59:23;5.67;;;2.03;;
20042;SDS011;10182;52.896;6.496;2023-04-25T14:04:25;4.73;;;1.80;;
20042;SDS011;10182;52.896;6.496;2023-04-25T14:09:29;3.43;;;1.50;;
20042;SDS011;10182;52.896;6.496;2023-04-25T14:14:30;5.27;;;1.67;;
20042;SDS011;10182;52.896;6.496;2023-04-25T14:19:32;6.07;;;1.80;;
20042;SDS011;10182;52.896;6.496;2023-04-25T14:24:35;11.87;;;2.00;;
20042;SDS011;10182;52.896;6.496;2023-04-25T14:29:37;6.20;;;2.37;;
20042;SDS011;10182;52.896;6.496;2023-04-25T14:34:39;6.03;;;2.10;;
20042;SDS011;10182;52.896;6.496;2023-04-25T14:39:42;5.53;;;1.40;;
20042;SDS011;10182;52.896;6.496;2023-04-25T14:44:43;7.47;;;1.70;;
20042;SDS011;10182;52.896;6.496;2023-04-25T14:49:45;5.97;;;2.17;;
20042;SDS011;10182;52.896;6.496;2023-04-25T14:54:55;7.47;;;2.20;;
20042;SDS011;10182;52.896;6.496;2023-04-25T14:59:56;9.23;;;2.20;;
20042;SDS011;10182;52.896;6.496;2023-04-25T15:04:58;8.73;;;1.70;;
20042;SDS011;10182;52.896;6.496;2023-04-25T15:10:02;11.40;;;2.03;;
20042;SDS011;10182;52.896;6.496;2023-04-25T15:15:06;5.53;;;1.80;;
20042;SDS011;10182;52.896;6.496;2023-04-25T15:20:12;2.87;;;1.20;;
20042;SDS011;10182;52.896;6.496;2023-04-25T15:25:16;3.87;;;1.60;;
20042;SDS011;10182;52.896;6.496;2023-04-25T15:30:18;8.67;;;1.70;;
20042;SDS011;10182;52.896;6.496;2023-04-25T15:35:20;5.83;;;1.70;;
20042;SDS011;10182;52.896;6.496;2023-04-25T15:40:23;4.37;;;1.67;;
20042;SDS011;10182;52.896;6.496;2023-04-25T15:45:25;11.43;;;2.00;;
20042;SDS011;10182;52.896;6.496;2023-04-25T15:50:27;10.83;;;2.00;;
20042;SDS011;10182;52.896;6.496;2023-04-25T15:55:30;7.67;;;1.93;;
20042;SDS011;10182;52.896;6.496;2023-04-25T16:00:33;9.03;;;2.20;;
20042;SDS011;10182;52.896;6.496;2023-04-25T16:05:36;7.30;;;1.60;;
20042;SDS011;10182;52.896;6.496;2023-04-25T16:10:40;6.30;;;2.27;;
20042;SDS011;10182;52.896;6.496;2023-04-25T16:15:42;6.67;;;2.07;;
20042;SDS011;10182;52.896;6.496;2023-04-25T16:20:44;5.53;;;1.63;;
20042;SDS011;10182;52.896;6.496;2023-04-25T16:25:47;6.47;;;2.03;;
20042;SDS011;10182;52.896;6.496;2023-04-25T16:30:49;9.67;;;2.30;;
20042;SDS011;10182;52.896;6.496;2023-04-25T16:35:51;7.00;;;2.47;;
20042;SDS011;10182;52.896;6.496;2023-04-25T16:40:54;5.03;;;1.57;;
20042;SDS011;10182;52.896;6.496;2023-04-25T16:45:56;7.90;;;1.60;;
20042;SDS011;10182;52.896;6.496;2023-04-25T16:50:57;6.63;;;2.07;;
20042;SDS011;10182;52.896;6.496;2023-04-25T16:56:01;6.97;;;1.80;;
20042;SDS011;10182;52.896;6.496;2023-04-25T17:01:03;8.60;;;2.13;;
20042;SDS011;10182;52.896;6.496;2023-04-25T17:06:05;7.20;;;1.60;;
20042;SDS011;10182;52.896;6.496;2023-04-25T17:11:08;8.20;;;1.93;;
20042;SDS011;10182;52.896;6.496;2023-04-25T17:16:10;5.67;;;1.80;;
20042;SDS011;10182;52.896;6.496;2023-04-25T17:21:15;7.63;;;2.10;;
20042;SDS011;10182;52.896;6.496;2023-04-25T17:26:18;7.10;;;2.30;;
20042;SDS011;10182;52.896;6.496;2023-04-25T17:31:21;10.27;;;2.10;;
20042;SDS011;10182;52.896;6.496;2023-04-25T17:36:23;8.90;;;2.47;;
20042;SDS011;10182;52.896;6.496;2023-04-25T17:41:26;7.90;;;2.20;;
20042;SDS011;10182;52.896;6.496;2023-04-25T17:46:28;7.00;;;1.87;;
20042;SDS011;10182;52.896;6.496;2023-04-25T17:51:29;7.03;;;1.90;;
20042;SDS011;10182;52.896;6.496;2023-04-25T17:56:33;6.17;;;1.50;;
20042;SDS011;10182;52.896;6.496;2023-04-25T18:01:36;7.50;;;1.83;;
20042;SDS011;10182;52.896;6.496;2023-04-25T18:06:38;9.73;;;2.07;;
20042;SDS011;10182;52.896;6.496;2023-04-25T18:11:41;6.33;;;1.90;;
20042;SDS011;10182;52.896;6.496;2023-04-25T18:16:43;8.70;;;2.17;;
20042;SDS011;10182;52.896;6.496;2023-04-25T18:21:45;9.43;;;2.40;;
20042;SDS011;10182;52.896;6.496;2023-04-25T18:26:48;10.53;;;2.57;;
20042;SDS011;10182;52.896;6.496;2023-04-25T18:31:51;11.80;;;2.37;;
20042;SDS011;10182;52.896;6.496;2023-04-25T18:36:52;11.27;;;2.60;;
20042;SDS011;10182;52.896;6.496;2023-04-25T18:41:56;6.40;;;2.40;;
20042;SDS011;10182;52.896;6.496;2023-04-25T18:46:58;8.53;;;2.27;;
20042;SDS011;10182;52.896;6.496;2023-04-25T18:52:00;10.17;;;2.57;;
20042;SDS011;10182;52.896;6.496;2023-04-25T18:57:04;9.23;;;2.60;;
20042;SDS011;10182;52.896;6.496;2023-04-25T19:02:06;5.30;;;2.40;;
20042;SDS011;10182;52.896;6.496;2023-04-25T19:07:08;7.93;;;2.57;;
20042;SDS011;10182;52.896;6.496;2023-04-25T19:12:11;9.60;;;2.33;;
20042;SDS011;10182;52.896;6.496;2023-04-25T19:17:12;7.20;;;2.67;;
20042;SDS011;10182;52.896;6.496;2023-04-25T19:22:17;6.50;;;2.77;;
20042;SDS011;10182;52.896;6.496;2023-04-25T19:27:20;8.63;;;3.00;;
20042;SDS011;10182;52.896;6.496;2023-04-25T19:32:22;11.93;;;3.60;;
20042;SDS011;10182;52.896;6.496;2023-04-25T19:37:24;11.47;;;2.67;;
20042;SDS011;10182;52.896;6.496;2023-04-25T19:42:27;6.47;;;3.00;;
20042;SDS011;10182;52.896;6.496;2023-04-25T19:47:32;8.03;;;2.63;;
20042;SDS011;10182;52.896;6.496;2023-04-25T19:52:37;9.00;;;3.00;;
20042;SDS011;10182;52.896;6.496;2023-04-25T19:57:40;7.77;;;2.80;;
20042;SDS011;10182;52.896;6.496;2023-04-25T20:02:42;9.47;;;2.63;;
20042;SDS011;10182;52.896;6.496;2023-04-25T20:07:45;10.30;;;2.97;;
20042;SDS011;10182;52.896;6.496;2023-04-25T20:12:48;7.47;;;3.20;;
20042;SDS011;10182;52.896;6.496;2023-04-25T20:17:50;5.60;;;3.47;;
20042;SDS011;10182;52.896;6.496;2023-04-25T20:22:52;7.40;;;2.80;;
20042;SDS011;10182;52.896;6.496;2023-04-25T20:27:55;7.43;;;2.70;;
20042;SDS011;10182;52.896;6.496;2023-04-25T20:32:58;9.67;;;4.07;;
20042;SDS011;10182;52.896;6.496;2023-04-25T20:38:01;7.37;;;4.00;;
20042;SDS011;10182;52.896;6.496;2023-04-25T20:43:04;6.30;;;3.33;;
20042;SDS011;10182;52.896;6.496;2023-04-25T20:48:05;6.37;;;2.57;;
20042;SDS011;10182;52.896;6.496;2023-04-25T20:53:07;9.00;;;3.23;;
20042;SDS011;10182;52.896;6.496;2023-04-25T20:58:11;7.50;;;2.87;;
20042;SDS011;10182;52.896;6.496;2023-04-25T21:03:14;6.37;;;2.70;;
20042;SDS011;10182;52.896;6.496;2023-04-25T21:08:15;6.73;;;2.30;;
20042;SDS011;10182;52.896;6.496;2023-04-25T21:13:20;9.37;;;2.57;;
20042;SDS011;10182;52.896;6.496;2023-04-25T21:18:21;6.83;;;2.73;;
20042;SDS011;10182;52.896;6.496;2023-04-25T21:23:23;7.57;;;2.77;;
20042;SDS011;10182;52.896;6.496;2023-04-25T21:28:26;6.37;;;2.93;;
20042;SDS011;10182;52.896;6.496;2023-04-25T21:33:28;7.03;;;2.60;;
20042;SDS011;10182;52.896;6.496;2023-04-25T21:38:30;9.53;;;3.43;;
20042;SDS011;10182;52.896;6.496;2023-04-25T21:43:33;7.70;;;2.70;;
20042;SDS011;10182;52.896;6.496;2023-04-25T21:48:36;8.63;;;2.73;;
20042;SDS011;10182;52.896;6.496;2023-04-25T21:53:38;10.63;;;2.97;;
20042;SDS011;10182;52.896;6.496;2023-04-25T21:58:41;7.80;;;3.20;;
20042;SDS011;10182;52.896;6.496;2023-04-25T22:03:42;10.60;;;3.70;;
20042;SDS011;10182;52.896;6.496;2023-04-25T22:08:44;11.90;;;3.40;;
20042;SDS011;10182;52.896;6.496;2023-04-25T22:13:47;9.17;;;3.63;;
20042;SDS011;10182;52.896;6.496;2023-04-25T22:18:50;14.00;;;3.10;;
20042;SDS011;10182;52.896;6.496;2023-04-25T22:23:52;5.47;;;2.80;;
20042;SDS011;10182;52.896;6.496;2023-04-25T22:28:58;5.70;;;3.27;;
20042;SDS011;10182;52.896;6.496;2023-04-25T22:33:59;6.23;;;3.37;;
20042;SDS011;10182;52.896;6.496;2023-04-25T22:39:01;11.63;;;3.70;;
20042;SDS011;10182;52.896;6.496;2023-04-25T22:44:04;8.67;;;3.30;;
20042;SDS011;10182;52.896;6.496;2023-04-25T22:49:06;6.47;;;2.90;;
20042;SDS011;10182;52.896;6.496;2023-04-25T22:54:07;11.53;;;3.50;;
20042;SDS011;10182;52.896;6.496;2023-04-25T22:59:11;9.20;;;3.10;;
20042;SDS011;10182;52.896;6.496;2023-04-25T23:04:12;9.87;;;3.13;;
20042;SDS011;10182;52.896;6.496;2023-04-25T23:09:15;5.70;;;2.73;;
20042;SDS011;10182;52.896;6.496;2023-04-25T23:14:18;8.33;;;3.20;;
20042;SDS011;10182;52.896;6.496;2023-04-25T23:19:20;7.03;;;2.63;;
20042;SDS011;10182;52.896;6.496;2023-04-25T23:24:22;6.43;;;2.63;;
20042;SDS011;10182;52.896;6.496;2023-04-25T23:29:25;6.77;;;3.47;;
20042;SDS011;10182;52.896;6.496;2023-04-25T23:34:28;5.10;;;2.67;;
20042;SDS011;10182;52.896;6.496;2023-04-25T23:39:30;10.80;;;2.80;;
20042;SDS011;10182;52.896;6.496;2023-04-25T23:44:33;4.80;;;2.70;;
20042;SDS011;10182;52.896;6.496;2023-04-25T23:49:35;9.57;;;3.07;;
20042;SDS011;10182;52.896;6.496;2023-04-25T23:54:37;7.87;;;3.80;;
20042;SDS011;10182;52.896;6.496;2023-04-25T23:59:40;7.50;;;3.17;;
